Friday, August 29, 2014, 2:20 PM EDT

KDOV, Dover Air Force Base

Location: Dover, DE, United States Lat: 39.133
Local Time: 2:20 PM EDT (18:20 GMT) Lon: -75.467
Time Zone: US/Eastern Elev: 29 ft

Show me the last for .
Show Decoded

2014-08-29 13:58 METAR KDOV 291758Z AUTO 10004KT 10SM CLR 25/12 A3018 RMK AO2 RAB1725E1728DZB1728
                 SLP223 P0000 60000 T02450124 10245 20160 58004 =
2014-08-29 12:58 METAR KDOV 291658Z AUTO VRB05KT 10SM CLR 24/13 A3018 RMK AO2 SLP223 T02350128 =
2014-08-29 11:58 METAR KDOV 291558Z AUTO VRB04KT 10SM CLR 23/13 A3019 =
2014-08-29 10:58 METAR KDOV 291458Z AUTO 04005KT 10SM CLR 22/14 A3019 =
2014-08-29 09:58 METAR KDOV 291358Z AUTO 02009KT 10SM CLR 21/14 A3018 =
2014-08-29 08:58 METAR KDOV 291258Z AUTO 36009KT 10SM CLR 19/14 A3016 =
2014-08-29 07:58 METAR KDOV 291158Z AUTO 35006KT 10SM CLR 16/13 A3016 =
2014-08-29 06:58 METAR KDOV 291058Z AUTO 33003KT 10SM CLR 13/12 A3014 RMK AO2 SLP210 T01340115 =
2014-08-29 05:58 METAR KDOV 290958Z AUTO 35007KT 10SM CLR 12/11 A3012 RMK AO2 SLP203 T01240110 =
2014-08-29 04:58 METAR KDOV 290858Z AUTO 30002KT 10SM CLR 14/11 A3010 RMK AO2 SLP196 T01440112
                 53009 =
2014-08-29 03:58 METAR KDOV 290758Z AUTO 34003KT 10SM CLR 15/11 A3008 =
2014-08-29 02:58 METAR KDOV 290658Z AUTO 35008KT 10SM CLR 15/12 A3008 RMK AO2 SLP189 T01460119 =
2014-08-29 01:58 METAR KDOV 290558Z AUTO 36008KT 10SM CLR 16/13 A3008 =
2014-08-29 00:58 METAR KDOV 290458Z AUTO 01009KT 350V090 10SM CLR 17/13 A3007 RMK AO2 SLP186
                 T01680134 402760165 =
2014-08-28 23:58 METAR KDOV 290358Z AUTO 33004KT 10SM CLR 18/12 A3005 =
2014-08-28 22:58 METAR KDOV 290258Z AUTO 35003KT 10SM CLR 17/13 A3004 RMK AO2 SLP176 T01720125
                 52020 =
2014-08-28 21:58 METAR KDOV 290158Z AUTO 36007KT 350V110 10SM CLR 19/12 A3003 =
2014-08-28 20:58 METAR KDOV 290058Z AUTO 33008KT 10SM CLR 21/12 A3001 RMK AO2 SLP165 T02070124 =
2014-08-28 19:58 METAR KDOV 282358Z AUTO 33008KT 10SM CLR 22/14 A2998 =
2014-08-28 18:58 METAR KDOV 282258Z AUTO 34009KT 10SM CLR 25/14 A2996 =
2014-08-28 17:58 METAR KDOV 282158Z AUTO 30013KT 10SM CLR 26/14 A2995 =
2014-08-28 17:08 METAR KDOV 282108Z AUTO 32012G19KT 10SM FEW050 27/15 A2994 RMK AO2 WSHFT 06 =
2014-08-28 17:05 METAR KDOV 282105Z AUTO 29012G19KT 260V350 10SM FEW050 27/15 A2993 =
2014-08-28 16:58 METAR KDOV 282058Z AUTO 33009KT 10SM FEW050 27/16 A2993 =
2014-08-28 15:58 METAR KDOV 281958Z AUTO 31011KT 10SM SCT047 27/16 A2993 =
2014-08-28 15:30 METAR KDOV 281930Z AUTO 33012G16KT 10SM FEW047 27/16 A2993 RMK AO2 WSHFT 18 =
2014-08-28 14:58 METAR KDOV 281858Z AUTO 32015KT 10SM CLR 27/16 A2993 RMK AO2 SLP138 T02740157 =
2014-08-28 14:46 METAR KDOV 281846Z AUTO 33014KT 10SM FEW045 27/16 A2992 RMK AO2 WSHFT 43 =

Support USWX by starting your Amazon purchase here.